createdAt,value
2019-04-05T00:02:34.031Z,70.54
2019-04-05T00:05:20.139Z,70.75
2019-04-05T00:08:06.304Z,70.75
2019-04-05T00:10:52.429Z,70.60
2019-04-05T00:13:38.652Z,70.52
2019-04-05T00:16:24.608Z,70.79
2019-04-05T00:19:10.673Z,71.24
2019-04-05T00:21:56.562Z,71.28
2019-04-05T00:24:42.616Z,71.24
2019-04-05T00:27:28.575Z,71.49
2019-04-05T00:30:14.544Z,71.75
2019-04-05T00:33:00.869Z,71.65
2019-04-05T00:35:46.926Z,71.73
2019-04-05T00:38:32.924Z,71.78
2019-04-05T00:41:18.991Z,71.95
2019-04-05T00:44:07.938Z,71.92
2019-04-05T00:46:54.141Z,71.49
2019-04-05T00:49:40.228Z,71.45
2019-04-05T00:52:26.433Z,71.45
2019-04-05T00:55:12.471Z,71.40
2019-04-05T00:57:59.251Z,71.71
2019-04-05T01:00:45.444Z,71.66
2019-04-05T01:03:31.738Z,71.72
2019-04-05T01:06:17.666Z,71.59
2019-04-05T01:09:03.870Z,71.27
2019-04-05T01:11:50.105Z,71.07
2019-04-05T01:14:36.420Z,70.68
2019-04-05T01:17:25.149Z,70.70
2019-04-05T01:20:10.826Z,70.51
2019-04-05T01:22:57.102Z,70.33
2019-04-05T01:25:43.310Z,70.61
2019-04-05T01:28:29.319Z,70.70
2019-04-05T01:31:15.481Z,70.78
2019-04-05T01:34:01.432Z,70.71
2019-04-05T01:36:47.451Z,70.55
2019-04-05T01:39:33.648Z,70.36
2019-04-05T01:42:19.861Z,70.51
2019-04-05T01:45:05.801Z,70.62
2019-04-05T01:47:51.726Z,70.44
2019-04-05T01:50:37.773Z,71.11
2019-04-05T01:53:24.081Z,71.29
2019-04-05T01:56:10.384Z,71.44
2019-04-05T01:58:56.514Z,71.27
2019-04-05T02:01:42.460Z,71.52
2019-04-05T02:04:28.921Z,71.57
2019-04-05T02:07:15.354Z,71.47
2019-04-05T02:10:01.543Z,71.51
2019-04-05T02:12:47.753Z,71.54
2019-04-05T02:15:34.027Z,71.56
2019-04-05T02:18:19.952Z,71.74
2019-04-05T02:21:06.026Z,71.79
2019-04-05T02:23:52.328Z,71.77
2019-04-05T02:26:38.300Z,71.86
2019-04-05T02:29:25.299Z,71.72
2019-04-05T02:32:11.490Z,71.66
2019-04-05T02:34:57.746Z,71.68
2019-04-05T02:37:43.820Z,71.59
2019-04-05T02:40:30.123Z,71.17
2019-04-05T02:43:16.436Z,71.19
2019-04-05T02:46:02.338Z,71.28
2019-04-05T02:48:48.274Z,71.05
2019-04-05T02:51:34.234Z,71.28
2019-04-05T02:54:20.255Z,71.41
2019-04-05T02:57:06.186Z,71.12
2019-04-05T02:59:52.583Z,70.86
2019-04-05T03:02:38.487Z,70.84
2019-04-05T03:05:24.722Z,71.25
2019-04-05T03:08:10.650Z,70.79
2019-04-05T03:10:56.832Z,70.99
2019-04-05T03:13:42.902Z,70.76
2019-04-05T03:16:39.990Z,70.39
2019-04-05T03:19:16.802Z,70.59
2019-04-05T03:22:03.006Z,70.73
2019-04-05T03:24:48.965Z,70.68
2019-04-05T03:27:35.393Z,70.66
2019-04-05T03:30:21.634Z,70.74
2019-04-05T03:33:07.617Z,71.01
2019-04-05T03:35:53.546Z,71.02
2019-04-05T03:38:39.568Z,70.79
2019-04-05T03:41:25.404Z,70.45
2019-04-05T03:44:11.390Z,70.49
2019-04-05T03:46:58.060Z,70.82
2019-04-05T03:49:44.284Z,70.82
2019-04-05T03:52:30.708Z,70.80
2019-04-05T03:55:16.691Z,70.58
2019-04-05T03:58:02.889Z,70.42
2019-04-05T04:00:58.662Z,70.32
2019-04-05T04:03:47.787Z,70.60
2019-04-05T04:06:33.835Z,70.68
2019-04-05T04:09:19.819Z,70.85
2019-04-05T04:12:05.828Z,70.52
2019-04-05T04:14:51.845Z,70.36
2019-04-05T04:17:37.827Z,70.13
2019-04-05T04:20:24.118Z,70.10
2019-04-05T04:23:10.080Z,69.96
2019-04-05T04:25:56.262Z,69.88
2019-04-05T04:28:42.239Z,69.62
2019-04-05T04:31:28.230Z,69.18
2019-04-05T04:34:14.131Z,68.87
2019-04-05T04:37:00.121Z,69.42
2019-04-05T04:39:46.093Z,69.75
2019-04-05T04:42:32.087Z,70.36
2019-04-05T04:45:18.094Z,70.98
2019-04-05T04:48:04.015Z,70.95
2019-04-05T04:50:49.974Z,71.08
2019-04-05T04:53:36.049Z,71.22
2019-04-05T04:56:21.955Z,71.22
2019-04-05T04:59:07.887Z,71.26
2019-04-05T05:01:54.202Z,71.35
2019-04-05T05:04:40.161Z,71.44
2019-04-05T05:07:26.329Z,71.39
2019-04-05T05:10:12.242Z,71.19
2019-04-05T05:12:58.199Z,71.01
2019-04-05T05:15:44.470Z,71.01
2019-04-05T05:18:30.340Z,70.78
2019-04-05T05:21:16.724Z,70.70
2019-04-05T05:24:02.629Z,70.93
2019-04-05T05:26:49.234Z,70.96
2019-04-05T05:29:35.406Z,70.81
2019-04-05T05:32:21.568Z,71.01
2019-04-05T05:35:10.089Z,71.10
2019-04-05T05:37:56.416Z,71.07
2019-04-05T05:40:44.632Z,70.95
2019-04-05T05:43:30.880Z,71.19
2019-04-05T05:46:17.252Z,70.90
2019-04-05T05:49:03.553Z,70.64
2019-04-05T05:51:49.699Z,70.67
2019-04-05T05:54:36.054Z,70.61
2019-04-05T05:57:21.982Z,70.31
2019-04-05T06:00:08.008Z,70.54
2019-04-05T06:02:53.895Z,70.31
2019-04-05T06:05:40.165Z,69.95
2019-04-05T06:08:29.561Z,69.85
2019-04-05T06:11:15.630Z,70.06
2019-04-05T06:14:02.135Z,69.88
2019-04-05T06:16:48.290Z,69.76
2019-04-05T06:19:34.343Z,69.87
2019-04-05T06:22:20.216Z,69.83
2019-04-05T06:25:06.483Z,69.64
2019-04-05T06:27:55.403Z,69.44
2019-04-05T06:30:41.718Z,69.50
2019-04-05T06:33:31.838Z,69.53
2019-04-05T06:36:16.226Z,69.57
2019-04-05T06:39:02.071Z,69.76
2019-04-05T06:41:48.235Z,69.28
2019-04-05T06:44:34.227Z,69.17
2019-04-05T06:47:20.314Z,69.18
2019-04-05T06:50:06.313Z,69.23
2019-04-05T06:52:52.537Z,69.24
2019-04-05T06:55:38.438Z,69.08
2019-04-05T06:58:28.952Z,68.95
2019-04-05T07:01:12.268Z,68.95
2019-04-05T07:03:58.528Z,68.85
2019-04-05T07:06:44.809Z,68.63
2019-04-05T07:09:33.928Z,68.32
2019-04-05T07:12:20.531Z,68.61
2019-04-05T07:15:06.779Z,68.14
2019-04-05T07:17:52.744Z,68.24
2019-04-05T07:20:40.973Z,68.14
2019-04-05T07:23:29.187Z,67.41
2019-04-05T07:26:15.243Z,67.16
2019-04-05T07:29:03.273Z,65.96
2019-04-05T07:31:49.522Z,66.11
2019-04-05T07:34:35.747Z,66.42
2019-04-05T07:37:21.669Z,66.34
2019-04-05T07:40:07.711Z,66.07
2019-04-05T07:42:53.621Z,64.62
2019-04-05T07:45:39.475Z,64.21
2019-04-05T07:48:25.397Z,64.19
2019-04-05T07:51:11.393Z,64.07
2019-04-05T07:53:59.369Z,63.87
2019-04-05T07:56:46.361Z,63.29
2019-04-05T07:59:32.744Z,62.92
2019-04-05T08:02:18.944Z,62.65
2019-04-05T08:05:06.417Z,61.25
2019-04-05T08:07:52.465Z,60.89
2019-04-05T08:10:39.096Z,60.74
2019-04-05T08:13:24.977Z,60.67
2019-04-05T08:16:10.925Z,61.00
2019-04-05T08:18:58.295Z,61.30
2019-04-05T08:21:44.392Z,61.45
2019-04-05T08:24:30.410Z,58.91
2019-04-05T08:27:16.594Z,58.92
2019-04-05T08:30:02.959Z,58.15
2019-04-05T08:32:48.864Z,57.86
2019-04-05T08:35:35.032Z,56.36
2019-04-05T08:38:21.103Z,57.81
2019-04-05T08:41:10.457Z,56.99
2019-04-05T08:43:59.530Z,56.53
2019-04-05T08:46:45.767Z,57.21
2019-04-05T08:49:31.856Z,55.36
2019-04-05T08:52:17.726Z,55.57
2019-04-05T08:55:03.979Z,55.80
2019-04-05T08:57:52.251Z,55.52
2019-04-05T09:00:38.141Z,54.81
2019-04-05T09:03:24.586Z,54.15
2019-04-05T09:06:10.788Z,54.75
2019-04-05T09:08:56.976Z,55.30
2019-04-05T09:11:43.137Z,54.26
2019-04-05T09:14:29.161Z,54.70
2019-04-05T09:17:15.317Z,54.43
2019-04-05T09:20:01.282Z,54.88
2019-04-05T09:22:47.186Z,54.66
2019-04-05T09:25:33.125Z,54.10
2019-04-05T09:28:19.079Z,54.87
2019-04-05T09:31:06.335Z,55.30
2019-04-05T09:33:52.404Z,54.40
2019-04-05T09:36:38.529Z,53.30
2019-04-05T09:39:24.928Z,53.44
2019-04-05T09:42:11.691Z,54.19
2019-04-05T09:44:58.141Z,54.16
2019-04-05T09:47:45.999Z,54.49
2019-04-05T09:50:35.316Z,54.78
2019-04-05T09:53:24.002Z,53.81
2019-04-05T09:56:10.195Z,53.92
2019-04-05T09:58:56.106Z,53.62
2019-04-05T10:01:42.114Z,54.59
2019-04-05T10:04:31.099Z,54.54
2019-04-05T10:07:16.148Z,54.08
2019-04-05T10:10:02.591Z,54.46
2019-04-05T10:12:49.256Z,52.83
2019-04-05T10:15:35.818Z,53.18
2019-04-05T10:18:22.188Z,53.68
2019-04-05T10:21:08.249Z,52.72
2019-04-05T10:23:54.215Z,52.46
2019-04-05T10:26:40.209Z,52.73
2019-04-05T10:29:26.464Z,52.98
2019-04-05T10:32:12.662Z,52.41
2019-04-05T10:34:59.133Z,52.54
2019-04-05T10:37:45.286Z,52.55
2019-04-05T10:40:31.379Z,52.67
2019-04-05T10:43:17.446Z,52.52
2019-04-05T10:46:04.636Z,52.58
2019-04-05T10:48:51.069Z,53.07
2019-04-05T10:51:37.086Z,52.27
2019-04-05T10:54:23.095Z,51.77
2019-04-05T10:57:09.105Z,51.43
2019-04-05T10:59:55.223Z,51.30
2019-04-05T11:02:41.210Z,50.84
2019-04-05T11:05:27.487Z,50.76
2019-04-05T11:08:13.480Z,51.75
2019-04-05T11:10:59.773Z,51.41
2019-04-05T11:13:45.998Z,50.47
2019-04-05T11:16:31.885Z,51.09
2019-04-05T11:19:17.838Z,50.30
2019-04-05T11:22:03.801Z,50.46
2019-04-05T11:24:49.819Z,49.74
2019-04-05T11:27:35.912Z,48.95
2019-04-05T11:30:22.588Z,49.11
2019-04-05T11:33:08.858Z,49.31
2019-04-05T11:35:58.601Z,48.89
2019-04-05T11:38:44.589Z,48.70
2019-04-05T11:41:30.601Z,48.94
2019-04-05T11:44:16.696Z,48.83
2019-04-05T11:47:02.906Z,48.64
2019-04-05T11:49:48.861Z,48.64
2019-04-05T11:52:34.865Z,49.09
2019-04-05T11:55:20.810Z,48.45
2019-04-05T11:58:06.762Z,48.22
2019-04-05T12:01:18.138Z,48.01
2019-04-05T12:04:04.012Z,47.54
2019-04-05T12:06:52.163Z,47.96
2019-04-05T12:09:38.020Z,47.21
2019-04-05T12:12:25.594Z,47.40
2019-04-05T12:15:11.929Z,47.91
2019-04-05T12:17:58.190Z,48.33
2019-04-05T12:20:52.041Z,48.23
2019-04-05T12:23:33.455Z,48.56
2019-04-05T12:26:19.530Z,47.98
2019-04-05T12:29:05.813Z,48.62
2019-04-05T12:31:53.425Z,48.63
2019-04-05T12:34:39.773Z,48.94
2019-04-05T12:37:26.077Z,48.73
2019-04-05T12:40:14.696Z,49.36
2019-04-05T12:42:59.955Z,49.14
2019-04-05T12:45:46.052Z,49.30
2019-04-05T12:48:32.308Z,49.20
2019-04-05T12:51:18.302Z,48.59
2019-04-05T12:54:04.578Z,48.50
2019-04-05T12:56:50.580Z,49.00
2019-04-05T12:59:36.565Z,48.95
2019-04-05T13:02:33.097Z,49.43
2019-04-05T13:05:12.770Z,49.66
2019-04-05T13:07:59.086Z,49.93
2019-04-05T13:10:45.063Z,50.17
2019-04-05T13:13:31.315Z,50.47
2019-04-05T13:16:17.536Z,50.21
2019-04-05T13:19:03.963Z,51.06
2019-04-05T13:21:49.920Z,50.61
2019-04-05T13:24:39.587Z,50.74
2019-04-05T13:27:23.832Z,51.07
2019-04-05T13:30:09.785Z,51.42
2019-04-05T13:32:55.815Z,51.89
2019-04-05T13:35:41.753Z,51.60
2019-04-05T13:38:29.791Z,51.65
2019-04-05T13:41:15.634Z,51.45
2019-04-05T13:44:02.295Z,51.93
2019-04-05T13:46:48.493Z,51.51
2019-04-05T13:49:34.541Z,51.91
2019-04-05T13:52:20.523Z,52.25
2019-04-05T13:55:08.470Z,52.25
2019-04-05T13:57:54.624Z,53.00
2019-04-05T14:00:40.763Z,51.86
2019-04-05T14:03:26.728Z,52.61
2019-04-05T14:06:14.900Z,52.37
2019-04-05T14:09:01.123Z,52.31
2019-04-05T14:11:46.936Z,52.14
2019-04-05T14:14:33.044Z,52.55
2019-04-05T14:17:19.085Z,52.83
2019-04-05T14:20:05.400Z,52.37
2019-04-05T14:22:52.317Z,52.24
2019-04-05T14:25:38.409Z,53.15
2019-04-05T14:28:24.311Z,52.54
2019-04-05T14:31:12.731Z,52.29
2019-04-05T14:33:59.423Z,52.86
2019-04-05T14:36:45.647Z,52.86
2019-04-05T14:39:32.224Z,52.96
2019-04-05T14:42:18.287Z,53.25
2019-04-05T14:45:04.454Z,53.44
2019-04-05T14:47:50.449Z,54.01
2019-04-05T14:50:36.371Z,54.16
2019-04-05T14:53:22.619Z,54.29
2019-04-05T14:56:08.816Z,54.21
2019-04-05T14:58:54.854Z,53.72
2019-04-05T15:01:41.024Z,53.83
2019-04-05T15:04:27.043Z,54.34
2019-04-05T15:07:13.090Z,54.66
2019-04-05T15:09:59.125Z,54.85
2019-04-05T15:12:45.021Z,55.54
2019-04-05T15:15:31.236Z,55.65
2019-04-05T15:18:19.524Z,55.50
2019-04-05T15:21:06.405Z,55.71
2019-04-05T15:23:52.935Z,55.75
2019-04-05T15:26:38.929Z,56.07
2019-04-05T15:29:26.205Z,55.89
2019-04-05T15:32:13.040Z,55.72
2019-04-05T15:34:59.422Z,56.05
2019-04-05T15:37:45.710Z,56.47
2019-04-05T15:40:31.951Z,56.70
2019-04-05T15:43:18.289Z,57.13
2019-04-05T15:46:04.236Z,56.81
2019-04-05T15:48:51.759Z,57.31
2019-04-05T15:51:38.059Z,57.70
2019-04-05T15:54:24.169Z,58.39
2019-04-05T15:57:10.270Z,58.11
2019-04-05T15:59:56.210Z,58.50
2019-04-05T16:02:43.124Z,58.12
2019-04-05T16:05:29.188Z,58.52
2019-04-05T16:08:15.154Z,58.25
2019-04-05T16:11:01.848Z,58.61
2019-04-05T16:13:48.138Z,59.29
2019-04-05T16:16:34.088Z,59.25
2019-04-05T16:19:20.196Z,59.34
2019-04-05T16:22:06.146Z,59.74
2019-04-05T16:24:52.416Z,59.73
2019-04-05T16:27:39.742Z,60.21
2019-04-05T16:30:26.037Z,60.23
2019-04-05T16:33:11.964Z,59.91
2019-04-05T16:35:58.691Z,60.33
2019-04-05T16:38:45.540Z,60.36
2019-04-05T16:41:31.936Z,60.40
2019-04-05T16:44:18.391Z,61.11
2019-04-05T16:47:05.454Z,60.95
2019-04-05T16:49:54.450Z,60.92
2019-04-05T16:52:45.252Z,60.93
2019-04-05T16:55:31.344Z,61.23
2019-04-05T16:58:17.712Z,61.34
2019-04-05T17:01:04.475Z,61.55
2019-04-05T17:03:50.654Z,61.32
2019-04-05T17:06:36.876Z,61.60
2019-04-05T17:09:23.681Z,61.75
2019-04-05T17:12:10.159Z,61.72
2019-04-05T17:14:56.056Z,61.89
2019-04-05T17:17:42.082Z,61.96
2019-04-05T17:20:28.115Z,61.94
2019-04-05T17:23:14.425Z,62.00
2019-04-05T17:26:00.656Z,61.90
2019-04-05T17:28:46.699Z,62.00
2019-04-05T17:31:32.569Z,62.22
2019-04-05T17:34:18.979Z,61.99
2019-04-05T17:37:04.968Z,62.55
2019-04-05T17:39:50.917Z,62.58
2019-04-05T17:42:37.092Z,62.70
2019-04-05T17:45:23.109Z,62.92
2019-04-05T17:48:09.196Z,62.99
2019-04-05T17:50:55.563Z,63.44
2019-04-05T17:53:41.585Z,63.59
2019-04-05T17:56:27.901Z,63.74
2019-04-05T17:59:14.156Z,63.61
2019-04-05T18:02:00.430Z,63.80
2019-04-05T18:04:46.498Z,63.94
2019-04-05T18:07:32.886Z,63.87
2019-04-05T18:10:19.187Z,64.05
2019-04-05T18:13:05.476Z,63.96
2019-04-05T18:15:52.966Z,64.34
2019-04-05T18:18:39.793Z,64.81
2019-04-05T18:21:26.492Z,64.35
2019-04-05T18:24:12.849Z,64.11
2019-04-05T18:26:58.838Z,64.47
2019-04-05T18:29:45.174Z,64.77
2019-04-05T18:32:32.372Z,64.99
2019-04-05T18:35:18.649Z,64.70
2019-04-05T18:38:04.784Z,64.80
2019-04-05T18:40:50.781Z,64.85
2019-04-05T18:43:38.922Z,64.96
2019-04-05T18:46:25.487Z,65.00
2019-04-05T18:49:11.621Z,64.87
2019-04-05T18:51:58.186Z,64.69
2019-04-05T18:54:44.736Z,64.84
2019-04-05T18:57:34.915Z,65.14
2019-04-05T19:00:21.035Z,65.64
2019-04-05T19:03:07.481Z,65.52
2019-04-05T19:05:53.681Z,65.52
2019-04-05T19:08:40.256Z,65.97
2019-04-05T19:11:26.526Z,65.99
2019-04-05T19:14:12.755Z,65.82
2019-04-05T19:16:59.443Z,65.96
2019-04-05T19:19:45.686Z,66.04
2019-04-05T19:22:33.724Z,66.13
2019-04-05T19:25:19.830Z,66.19
2019-04-05T19:28:05.964Z,66.27
2019-04-05T19:50:28.164Z,66.61
2019-04-05T19:53:14.334Z,66.91
2019-04-05T19:56:00.347Z,66.86
2019-04-05T19:58:46.181Z,66.87
2019-04-05T20:01:32.354Z,67.39
2019-04-05T20:04:18.378Z,67.28
2019-04-05T20:07:04.626Z,67.39
2019-04-05T20:09:53.815Z,67.56
2019-04-05T20:12:39.909Z,67.64
2019-04-05T20:15:25.792Z,67.35
2019-04-05T20:18:11.727Z,67.47
2019-04-05T20:20:58.050Z,67.52
2019-04-05T20:23:47.703Z,67.54
2019-04-05T20:26:31.970Z,67.62
2019-04-05T20:29:19.059Z,67.44
2019-04-05T20:32:05.257Z,67.54
2019-04-05T20:34:51.151Z,67.41
2019-04-05T20:37:37.389Z,67.72
2019-04-05T20:40:23.921Z,67.85
2019-04-05T20:43:10.291Z,67.55
2019-04-05T20:45:57.122Z,67.85
2019-04-05T20:48:43.028Z,67.78
2019-04-05T20:51:29.878Z,67.84
2019-04-05T20:54:24.227Z,67.90
2019-04-05T20:57:04.230Z,67.84
2019-04-05T20:59:50.514Z,68.07
2019-04-05T21:02:36.943Z,68.02
2019-04-05T21:05:25.642Z,68.19
2019-04-05T21:08:11.234Z,67.88
2019-04-05T21:10:57.169Z,67.87
2019-04-05T21:13:43.157Z,67.77
2019-04-05T21:16:29.685Z,68.02
2019-04-05T21:19:16.149Z,67.97
2019-04-05T21:22:02.388Z,67.90
2019-04-05T21:24:52.858Z,67.75
2019-04-05T21:27:39.084Z,67.88
2019-04-05T21:30:25.379Z,67.76
2019-04-05T21:33:11.437Z,68.09
2019-04-05T21:35:58.288Z,68.00
2019-04-05T21:38:44.784Z,68.23
2019-04-05T21:41:31.167Z,68.42
2019-04-05T21:44:17.510Z,68.25
2019-04-05T21:47:03.644Z,68.26
2019-04-05T21:49:52.243Z,68.22
2019-04-05T21:52:38.791Z,68.40
2019-04-05T21:55:25.053Z,68.50
2019-04-05T21:58:14.055Z,68.50
2019-04-05T22:01:08.528Z,68.58
2019-04-05T22:03:54.693Z,68.60
2019-04-05T22:06:40.964Z,68.28
2019-04-05T22:09:27.195Z,68.35
2019-04-05T22:12:14.040Z,68.45
2019-04-05T22:15:00.688Z,68.60
2019-04-05T22:17:49.784Z,68.66
2019-04-05T22:20:36.153Z,68.59
2019-04-05T22:23:22.419Z,68.50
2019-04-05T22:26:10.710Z,68.69
2019-04-05T22:28:57.105Z,68.98
2019-04-05T22:31:43.193Z,69.04
2019-04-05T22:34:29.559Z,68.95
2019-04-05T22:37:16.334Z,68.87
2019-04-05T22:40:02.696Z,68.96
2019-04-05T22:42:49.189Z,68.76
2019-04-05T22:45:35.276Z,69.05
2019-04-05T22:48:21.929Z,69.06
2019-04-05T22:51:08.254Z,68.93
2019-04-05T22:53:54.880Z,68.93
2019-04-05T22:56:41.120Z,69.16
2019-04-05T22:59:27.510Z,68.76
2019-04-05T23:02:13.848Z,68.77
2019-04-05T23:05:01.022Z,68.73
2019-04-05T23:07:47.457Z,68.85
2019-04-05T23:10:33.660Z,68.63
2019-04-05T23:13:22.813Z,68.58
2019-04-05T23:16:09.070Z,68.69
2019-04-05T23:18:55.380Z,68.55
2019-04-05T23:21:41.714Z,68.60
2019-04-05T23:24:27.742Z,68.79
2019-04-05T23:27:13.924Z,68.60
2019-04-05T23:30:00.118Z,68.52
2019-04-05T23:32:48.253Z,68.73
2019-04-05T23:35:37.266Z,68.90
2019-04-05T23:38:23.637Z,68.75
2019-04-05T23:41:09.915Z,68.43
2019-04-05T23:43:55.938Z,68.45
2019-04-05T23:46:42.157Z,68.44
2019-04-05T23:49:29.669Z,68.60
2019-04-05T23:52:18.725Z,68.74
2019-04-05T23:55:04.783Z,68.84
2019-04-05T23:57:50.989Z,68.68
